createdAt,value
2022-09-24T00:01:17.206Z,7.71
2022-09-24T00:02:18.827Z,7.73
2022-09-24T00:03:21.208Z,7.73
2022-09-24T00:04:24.912Z,7.71
2022-09-24T00:05:26.589Z,7.69
2022-09-24T00:06:29.687Z,7.70
2022-09-24T00:07:31.243Z,7.67
2022-09-24T00:08:33.026Z,7.70
2022-09-24T00:09:34.582Z,7.70
2022-09-24T00:10:40.983Z,7.67
2022-09-24T00:11:44.413Z,7.69
2022-09-24T00:12:46.067Z,7.66
2022-09-24T00:13:48.619Z,7.63
2022-09-24T00:14:50.189Z,7.62
2022-09-24T00:15:52.322Z,7.60
2022-09-24T00:16:54.024Z,7.56
2022-09-24T00:17:55.575Z,7.59
2022-09-24T00:18:57.222Z,7.53
2022-09-24T00:19:58.774Z,7.55
2022-09-24T00:21:00.419Z,7.50
2022-09-24T00:22:02.043Z,7.56
2022-09-24T00:23:03.693Z,7.52
2022-09-24T00:24:07.713Z,7.49
2022-09-24T00:25:29.116Z,7.50
2022-09-24T00:26:49.695Z,7.52
2022-09-24T00:27:51.236Z,7.48
2022-09-24T00:28:52.840Z,7.43
2022-09-24T00:29:54.401Z,7.43
2022-09-24T00:30:59.209Z,7.46
2022-09-24T00:32:01.381Z,7.42
2022-09-24T00:33:02.969Z,7.46
2022-09-24T00:34:04.719Z,7.48
2022-09-24T00:35:06.856Z,7.42
2022-09-24T00:36:08.497Z,7.39
2022-09-24T00:37:11.143Z,7.36
2022-09-24T00:38:12.715Z,7.32
2022-09-24T00:39:14.439Z,7.28
2022-09-24T00:40:16.147Z,7.22
2022-09-24T00:41:20.160Z,7.28
2022-09-24T00:42:22.963Z,7.30
2022-09-24T00:43:35.750Z,7.28
2022-09-24T00:44:46.371Z,7.33
2022-09-24T00:45:47.941Z,7.33
2022-09-24T00:46:49.678Z,7.36
2022-09-24T00:47:51.417Z,7.38
2022-09-24T00:49:01.924Z,7.40
2022-09-24T00:50:04.721Z,7.39
2022-09-24T00:51:06.273Z,7.40
2022-09-24T00:52:07.842Z,7.38
2022-09-24T00:53:15.356Z,7.43
2022-09-24T00:54:19.660Z,7.40
2022-09-24T00:55:21.787Z,7.38
2022-09-24T00:56:23.381Z,7.39
2022-09-24T00:57:25.001Z,7.40
2022-09-24T00:58:27.118Z,7.39
2022-09-24T00:59:28.697Z,7.36
2022-09-24T01:00:31.109Z,7.36
2022-09-24T01:01:32.787Z,7.33
2022-09-24T01:02:36.247Z,7.30
2022-09-24T01:03:42.491Z,7.30
2022-09-24T01:04:44.145Z,7.32
2022-09-24T01:05:45.737Z,7.30
2022-09-24T01:06:50.326Z,7.30
2022-09-24T01:07:52.335Z,7.29
2022-09-24T01:08:55.126Z,7.33
2022-09-24T01:09:56.792Z,7.35
2022-09-24T01:11:07.210Z,7.36
2022-09-24T01:12:28.401Z,7.36
2022-09-24T01:13:33.294Z,7.36
2022-09-24T01:14:41.031Z,7.33
2022-09-24T01:15:49.509Z,7.30
2022-09-24T01:17:00.394Z,7.29
2022-09-24T01:18:09.473Z,7.23
2022-09-24T01:19:25.800Z,7.23
2022-09-24T01:20:58.760Z,7.18
2022-09-24T01:22:03.548Z,7.20
2022-09-24T01:23:26.095Z,7.12
2022-09-24T01:24:46.478Z,7.11
2022-09-24T01:26:00.271Z,7.12
2022-09-24T01:27:06.252Z,7.09
2022-09-24T01:28:35.525Z,7.15
2022-09-24T01:29:48.078Z,7.22
2022-09-24T01:30:50.816Z,7.20
2022-09-24T01:32:02.581Z,7.20
2022-09-24T01:33:08.738Z,7.25
2022-09-24T01:34:10.690Z,7.22
2022-09-24T01:35:21.633Z,7.25
2022-09-24T01:36:23.236Z,7.23
2022-09-24T01:37:25.908Z,7.20
2022-09-24T01:38:29.668Z,7.20
2022-09-24T01:39:31.420Z,7.16
2022-09-24T01:40:33.016Z,7.16
2022-09-24T01:41:36.354Z,7.12
2022-09-24T01:42:38.392Z,7.08
2022-09-24T01:43:39.976Z,7.14
2022-09-24T01:44:44.504Z,7.14
2022-09-24T01:45:46.233Z,7.14
2022-09-24T01:46:47.947Z,7.18
2022-09-24T01:47:50.180Z,7.18
2022-09-24T01:48:51.767Z,7.16
2022-09-24T01:49:53.788Z,7.12
2022-09-24T01:51:00.204Z,7.12
2022-09-24T01:52:03.426Z,7.14
2022-09-24T01:53:15.558Z,7.08
2022-09-24T01:54:21.240Z,7.02
2022-09-24T01:55:25.745Z,7.01
2022-09-24T01:56:30.469Z,6.99
2022-09-24T01:57:34.382Z,6.92
2022-09-24T01:58:50.221Z,6.92
2022-09-24T02:00:00.268Z,6.91
2022-09-24T02:01:10.476Z,6.89
2022-09-24T02:02:37.386Z,6.85
2022-09-24T02:03:43.595Z,6.87
2022-09-24T02:04:47.713Z,6.78
2022-09-24T02:06:14.068Z,6.77
2022-09-24T02:07:36.230Z,6.83
2022-09-24T02:08:39.697Z,6.80
2022-09-24T02:09:43.025Z,6.81
2022-09-24T02:10:48.089Z,6.80
2022-09-24T02:11:50.971Z,6.81
2022-09-24T02:12:58.318Z,6.83
2022-09-24T02:14:00.936Z,6.83
2022-09-24T02:15:04.183Z,6.81
2022-09-24T02:16:06.865Z,6.85
2022-09-24T02:17:08.556Z,6.84
2022-09-24T02:18:12.005Z,6.91
2022-09-24T02:19:16.023Z,6.89
2022-09-24T02:20:20.151Z,6.95
2022-09-24T02:21:21.725Z,6.95
2022-09-24T02:22:23.333Z,6.98
2022-09-24T02:23:24.878Z,6.94
2022-09-24T02:24:32.526Z,7.01
2022-09-24T02:25:50.736Z,7.04
2022-09-24T02:26:52.517Z,7.04
2022-09-24T02:27:54.064Z,7.01
2022-09-24T02:28:55.624Z,7.01
2022-09-24T02:29:57.954Z,6.98
2022-09-24T02:31:05.982Z,7.04
2022-09-24T02:32:08.918Z,7.07
2022-09-24T02:33:29.587Z,7.07
2022-09-24T02:34:38.420Z,7.04
2022-09-24T02:35:40.825Z,7.02
2022-09-24T02:36:43.342Z,6.97
2022-09-24T02:37:45.083Z,6.95
2022-09-24T02:38:47.160Z,6.89
2022-09-24T02:39:49.881Z,6.88
2022-09-24T02:40:51.790Z,6.91
2022-09-24T02:41:53.934Z,6.97
2022-09-24T02:42:55.542Z,6.91
2022-09-24T02:43:57.151Z,6.91
2022-09-24T02:45:00.339Z,6.89
2022-09-24T02:46:02.762Z,6.85
2022-09-24T02:47:04.500Z,6.92
2022-09-24T02:48:06.064Z,6.92
2022-09-24T02:49:08.545Z,6.95
2022-09-24T02:50:10.160Z,6.99
2022-09-24T02:51:11.778Z,7.01
2022-09-24T02:52:13.730Z,7.02
2022-09-24T02:53:15.342Z,7.02
2022-09-24T02:54:16.910Z,6.99
2022-09-24T02:55:18.533Z,6.97
2022-09-24T02:56:20.057Z,6.97
2022-09-24T02:57:21.590Z,6.97
2022-09-24T02:58:23.163Z,6.95
2022-09-24T02:59:24.773Z,7.05
2022-09-24T03:00:26.421Z,7.11
2022-09-24T03:01:28.504Z,7.15
2022-09-24T03:02:30.157Z,7.20
2022-09-24T03:03:32.041Z,7.20
2022-09-24T03:04:33.657Z,7.18
2022-09-24T03:05:35.276Z,7.18
2022-09-24T03:06:37.100Z,7.19
2022-09-24T03:07:38.703Z,7.22
2022-09-24T03:08:42.418Z,7.28
2022-09-24T03:09:43.978Z,7.20
2022-09-24T03:10:46.850Z,7.18
2022-09-24T03:11:48.466Z,7.19
2022-09-24T03:12:50.101Z,7.14
2022-09-24T03:13:51.712Z,7.14
2022-09-24T03:14:53.305Z,7.14
2022-09-24T03:15:54.891Z,7.18
2022-09-24T03:16:56.551Z,7.19
2022-09-24T03:17:58.142Z,7.20
2022-09-24T03:18:59.780Z,7.20
2022-09-24T03:20:02.169Z,7.23
2022-09-24T03:21:05.559Z,7.25
2022-09-24T03:22:07.274Z,7.28
2022-09-24T03:23:08.831Z,7.25
2022-09-24T03:24:10.567Z,7.23
2022-09-24T03:25:12.216Z,7.20
2022-09-24T03:26:13.852Z,7.23
2022-09-24T03:27:16.396Z,7.16
2022-09-24T03:28:18.178Z,7.14
2022-09-24T03:29:39.769Z,7.07
2022-09-24T03:30:59.770Z,7.07
2022-09-24T03:32:01.602Z,7.07
2022-09-24T03:33:03.282Z,7.04
2022-09-24T03:34:04.969Z,7.07
2022-09-24T03:35:06.813Z,7.07
2022-09-24T03:36:25.079Z,7.07
2022-09-24T03:37:26.797Z,7.01
2022-09-24T03:38:29.349Z,6.98
2022-09-24T03:39:31.349Z,6.97
2022-09-24T03:40:33.002Z,6.88
2022-09-24T03:41:34.800Z,6.88
2022-09-24T03:42:37.049Z,6.88
2022-09-24T03:43:38.868Z,6.91
2022-09-24T03:44:40.441Z,6.84
2022-09-24T03:45:42.007Z,6.87
2022-09-24T03:46:44.549Z,6.81
2022-09-24T03:47:46.374Z,6.78
2022-09-24T03:48:48.187Z,6.78
2022-09-24T03:49:49.730Z,6.84
2022-09-24T03:50:51.524Z,6.91
2022-09-24T03:51:53.892Z,6.85
2022-09-24T03:52:55.559Z,6.89
2022-09-24T03:53:57.121Z,6.95
2022-09-24T03:54:58.687Z,6.98
2022-09-24T03:56:02.399Z,6.98
2022-09-24T03:57:04.003Z,6.95
2022-09-24T03:58:05.562Z,7.02
2022-09-24T03:59:07.133Z,7.01
2022-09-24T04:00:09.421Z,7.02
2022-09-24T04:01:13.040Z,7.01
2022-09-24T04:02:14.716Z,6.98
2022-09-24T04:03:16.282Z,7.04
2022-09-24T04:04:17.905Z,7.04
2022-09-24T04:05:19.449Z,7.07
2022-09-24T04:06:25.728Z,7.08
2022-09-24T04:07:27.440Z,7.08
2022-09-24T04:08:29.001Z,7.09
2022-09-24T04:09:30.798Z,7.05
2022-09-24T04:10:32.423Z,7.05
2022-09-24T04:11:38.095Z,7.01
2022-09-24T04:12:39.715Z,7.01
2022-09-24T04:13:41.277Z,7.08
2022-09-24T04:14:42.889Z,7.09
2022-09-24T04:15:44.588Z,7.08
2022-09-24T04:16:46.520Z,7.08
2022-09-24T04:17:54.849Z,7.09
2022-09-24T04:18:56.392Z,7.05
2022-09-24T04:19:58.652Z,7.04
2022-09-24T04:21:00.434Z,7.01
2022-09-24T04:22:02.000Z,6.97
2022-09-24T04:23:03.695Z,6.95
2022-09-24T04:24:05.680Z,6.94
2022-09-24T04:25:11.443Z,6.92
2022-09-24T04:26:16.523Z,6.88
2022-09-24T04:27:18.681Z,6.87
2022-09-24T04:28:20.244Z,6.87
2022-09-24T04:29:21.806Z,6.85
2022-09-24T04:30:23.937Z,6.85
2022-09-24T04:31:27.426Z,6.84
2022-09-24T04:32:29.051Z,6.83
2022-09-24T04:33:30.595Z,6.85
2022-09-24T04:34:33.363Z,6.88
2022-09-24T04:35:36.298Z,6.81
2022-09-24T04:36:37.884Z,6.83
2022-09-24T04:37:39.417Z,6.80
2022-09-24T04:38:40.990Z,6.80
2022-09-24T04:39:42.557Z,6.78
2022-09-24T04:40:45.465Z,6.78
2022-09-24T04:41:47.963Z,6.75
2022-09-24T04:42:49.508Z,6.78
2022-09-24T04:43:51.434Z,6.77
2022-09-24T04:44:56.111Z,6.78
2022-09-24T04:45:58.972Z,6.81
2022-09-24T04:47:03.264Z,6.83
2022-09-24T04:48:04.966Z,6.85
2022-09-24T04:49:07.802Z,6.85
2022-09-24T04:50:09.952Z,6.88
2022-09-24T04:51:11.863Z,6.91
2022-09-24T04:52:16.203Z,6.95
2022-09-24T04:53:18.796Z,6.97
2022-09-24T04:54:20.745Z,6.97
2022-09-24T04:55:23.266Z,7.01
2022-09-24T04:56:24.957Z,7.02
2022-09-24T04:57:27.455Z,7.05
2022-09-24T04:58:29.018Z,7.07
2022-09-24T04:59:30.582Z,7.08
2022-09-24T05:00:33.409Z,7.12
2022-09-24T05:01:35.155Z,7.12
2022-09-24T05:02:36.970Z,7.16
2022-09-24T05:03:39.659Z,7.16
2022-09-24T05:04:41.259Z,7.20
2022-09-24T05:05:43.217Z,7.22
2022-09-24T05:06:44.766Z,7.25
2022-09-24T05:07:46.586Z,7.26
2022-09-24T05:08:48.155Z,7.28
2022-09-24T05:09:49.711Z,7.29
2022-09-24T05:10:53.456Z,7.30
2022-09-24T05:11:55.062Z,7.33
2022-09-24T05:12:56.751Z,7.35
2022-09-24T05:13:58.320Z,7.35
2022-09-24T05:14:59.871Z,7.38
2022-09-24T05:16:02.651Z,7.39
2022-09-24T05:17:04.240Z,7.39
2022-09-24T05:18:06.408Z,7.43
2022-09-24T05:19:07.978Z,7.43
2022-09-24T05:20:11.318Z,7.45
2022-09-24T05:21:12.876Z,7.43
2022-09-24T05:22:14.463Z,7.46
2022-09-24T05:23:16.255Z,7.48
2022-09-24T05:24:17.882Z,7.50
2022-09-24T05:25:20.273Z,7.49
2022-09-24T05:26:40.158Z,7.50
2022-09-24T05:27:49.075Z,7.52
2022-09-24T05:28:50.940Z,7.53
2022-09-24T05:29:52.472Z,7.58
2022-09-24T05:30:57.714Z,7.63
2022-09-24T05:32:02.846Z,7.67
2022-09-24T05:33:04.453Z,7.70
2022-09-24T05:34:06.121Z,7.79
2022-09-24T05:35:08.467Z,7.83
2022-09-24T05:36:10.083Z,7.95
2022-09-24T05:37:11.849Z,8.17
2022-09-24T05:38:13.411Z,8.51
2022-09-24T05:39:14.984Z,9.05
2022-09-24T05:40:35.232Z,9.59
2022-09-24T05:41:36.825Z,10.29
2022-09-24T05:42:38.396Z,10.73
2022-09-24T05:43:41.233Z,11.11
2022-09-24T05:44:49.802Z,11.17
2022-09-24T05:45:54.680Z,11.17
2022-09-24T05:46:56.278Z,11.15
2022-09-24T05:48:00.060Z,11.14
2022-09-24T05:49:01.842Z,11.30
2022-09-24T05:50:03.651Z,11.45
2022-09-24T05:51:05.589Z,11.58
2022-09-24T05:52:07.169Z,11.62
2022-09-24T05:53:09.490Z,11.62
2022-09-24T05:54:11.581Z,11.59
2022-09-24T05:55:13.241Z,11.58
2022-09-24T05:56:15.032Z,11.45
2022-09-24T05:57:16.818Z,11.39
2022-09-24T05:58:18.468Z,11.31
2022-09-24T05:59:20.047Z,11.25
2022-09-24T06:00:21.623Z,11.18
2022-09-24T06:01:24.897Z,11.11
2022-09-24T06:02:26.575Z,11.04
2022-09-24T06:03:29.750Z,10.97
2022-09-24T06:04:31.410Z,10.91
2022-09-24T06:05:35.394Z,10.90
2022-09-24T06:06:37.084Z,10.87
2022-09-24T06:07:38.891Z,10.80
2022-09-24T06:08:40.445Z,10.81
2022-09-24T06:09:42.033Z,10.85
2022-09-24T06:10:45.530Z,10.83
2022-09-24T06:11:49.224Z,10.85
2022-09-24T06:12:52.809Z,10.84
2022-09-24T06:13:54.399Z,10.87
2022-09-24T06:14:55.976Z,10.91
2022-09-24T06:16:01.972Z,10.89
2022-09-24T06:17:03.650Z,10.85
2022-09-24T06:18:05.699Z,10.84
2022-09-24T06:19:07.335Z,10.87
2022-09-24T06:20:09.273Z,10.89
2022-09-24T06:21:12.350Z,10.93
2022-09-24T06:22:14.098Z,10.97
2022-09-24T06:23:15.656Z,10.97
2022-09-24T06:24:17.436Z,11.01
2022-09-24T06:25:19.058Z,11.03
2022-09-24T06:26:20.636Z,11.04
2022-09-24T06:27:22.324Z,11.06
2022-09-24T06:28:25.615Z,11.10
2022-09-24T06:29:27.189Z,11.21
2022-09-24T06:30:29.277Z,11.27
2022-09-24T06:31:30.972Z,11.31
2022-09-24T06:32:32.696Z,11.39
2022-09-24T06:33:34.347Z,11.38
2022-09-24T06:34:35.916Z,11.39
2022-09-24T06:35:38.137Z,11.39
2022-09-24T06:36:40.319Z,11.46
2022-09-24T06:37:41.934Z,11.46
2022-09-24T06:38:45.425Z,11.45
2022-09-24T06:39:47.121Z,11.51
2022-09-24T06:40:48.802Z,11.48
2022-09-24T06:41:51.542Z,11.48
2022-09-24T06:42:53.224Z,11.45
2022-09-24T06:43:55.389Z,11.45
2022-09-24T06:44:56.967Z,11.41
2022-09-24T06:45:59.045Z,11.39
2022-09-24T06:47:01.827Z,11.34
2022-09-24T06:48:04.641Z,11.32
2022-09-24T06:49:06.245Z,11.24
2022-09-24T06:50:08.894Z,11.18
2022-09-24T06:51:10.497Z,11.17
2022-09-24T06:52:12.127Z,11.07
2022-09-24T06:53:13.893Z,11.06
2022-09-24T06:54:15.896Z,11.04
2022-09-24T06:55:17.654Z,11.00
2022-09-24T06:56:19.364Z,11.03
2022-09-24T06:57:24.274Z,11.04
2022-09-24T06:58:30.075Z,11.08
2022-09-24T06:59:31.698Z,11.13
2022-09-24T07:00:33.520Z,11.17
2022-09-24T07:01:35.187Z,11.22
2022-09-24T07:02:36.967Z,11.24
2022-09-24T07:03:39.521Z,11.22
2022-09-24T07:04:41.138Z,11.17
2022-09-24T07:05:43.974Z,11.20
2022-09-24T07:07:04.344Z,11.18
2022-09-24T07:08:05.898Z,11.20
2022-09-24T07:09:07.519Z,11.25
2022-09-24T07:10:10.067Z,11.27
2022-09-24T07:11:13.324Z,11.28
2022-09-24T07:12:14.949Z,11.28
2022-09-24T07:13:16.641Z,11.27
2022-09-24T07:14:18.267Z,11.31
2022-09-24T07:15:19.890Z,11.28
2022-09-24T07:16:21.485Z,11.27
2022-09-24T07:17:23.800Z,11.27
2022-09-24T07:18:25.388Z,11.24
2022-09-24T07:19:26.997Z,11.21
2022-09-24T07:20:28.929Z,11.17
2022-09-24T07:21:30.499Z,11.20
2022-09-24T07:22:32.074Z,11.18
2022-09-24T07:23:33.662Z,11.17
2022-09-24T07:24:35.292Z,11.18
2022-09-24T07:25:37.239Z,11.17
2022-09-24T07:26:38.867Z,11.13
2022-09-24T07:27:40.603Z,11.18
2022-09-24T07:28:42.173Z,11.21
2022-09-24T07:29:43.888Z,11.25
2022-09-24T07:30:45.464Z,11.27
2022-09-24T07:31:47.209Z,11.30
2022-09-24T07:32:54.823Z,11.36
2022-09-24T07:33:56.488Z,11.38
2022-09-24T07:34:58.064Z,11.41
2022-09-24T07:35:59.863Z,11.44
2022-09-24T07:37:01.584Z,11.46
2022-09-24T07:38:05.308Z,11.50
2022-09-24T07:39:06.969Z,11.55
2022-09-24T07:40:09.182Z,11.58
2022-09-24T07:41:10.834Z,11.64
2022-09-24T07:42:12.398Z,11.65
2022-09-24T07:43:14.767Z,11.62
2022-09-24T07:44:16.475Z,11.69
2022-09-24T07:45:18.112Z,11.73
2022-09-24T07:46:21.380Z,11.76
2022-09-24T07:47:23.118Z,11.81
2022-09-24T07:48:24.754Z,11.83
2022-09-24T07:49:26.817Z,11.89
2022-09-24T07:50:29.952Z,11.93
2022-09-24T07:51:31.768Z,11.95
2022-09-24T07:52:33.339Z,11.93
2022-09-24T07:53:34.981Z,11.96
2022-09-24T07:54:36.618Z,11.99
2022-09-24T07:55:40.813Z,12.00
2022-09-24T07:56:42.765Z,12.03
2022-09-24T07:57:51.927Z,12.10
2022-09-24T07:58:53.637Z,12.15
2022-09-24T07:59:55.642Z,12.19
2022-09-24T08:01:03.275Z,12.27
2022-09-24T08:02:09.282Z,12.32
2022-09-24T08:03:10.984Z,12.38
2022-09-24T08:04:12.722Z,12.44
2022-09-24T08:05:16.726Z,12.48
2022-09-24T08:06:18.950Z,12.53
2022-09-24T08:07:20.524Z,12.56
2022-09-24T08:08:22.135Z,12.60
2022-09-24T08:09:23.913Z,12.64
2022-09-24T08:10:27.083Z,12.68
2022-09-24T08:11:29.732Z,12.68
2022-09-24T08:12:31.281Z,12.74
2022-09-24T08:13:34.535Z,12.80
2022-09-24T08:14:36.144Z,12.87
2022-09-24T08:15:37.871Z,12.95
2022-09-24T08:16:40.757Z,13.02
2022-09-24T08:17:42.708Z,13.09
2022-09-24T08:18:44.255Z,13.16
2022-09-24T08:19:46.975Z,13.20
2022-09-24T08:20:48.559Z,13.28
2022-09-24T08:21:50.400Z,13.29
2022-09-24T08:22:52.098Z,13.32
2022-09-24T08:23:53.716Z,13.39
2022-09-24T08:24:55.978Z,13.46
2022-09-24T08:25:57.593Z,13.45
2022-09-24T08:26:59.209Z,13.45
2022-09-24T08:28:04.954Z,13.49
2022-09-24T08:29:06.542Z,13.55
2022-09-24T08:30:08.709Z,13.55
2022-09-24T08:31:13.398Z,13.55
2022-09-24T08:32:15.169Z,13.56
2022-09-24T08:33:16.878Z,13.58
2022-09-24T08:34:18.436Z,13.56
2022-09-24T08:35:19.989Z,13.58
2022-09-24T08:36:21.592Z,13.59
2022-09-24T08:37:23.263Z,13.65
2022-09-24T08:38:24.887Z,13.69
2022-09-24T08:39:27.831Z,13.71
2022-09-24T08:41:01.908Z,13.76
2022-09-24T08:42:12.653Z,13.77
2022-09-24T08:43:35.365Z,13.79
2022-09-24T08:44:58.016Z,13.80
2022-09-24T08:46:18.696Z,13.89
2022-09-24T08:47:27.574Z,13.94
2022-09-24T08:48:31.740Z,13.93
2022-09-24T08:50:07.244Z,14.03
2022-09-24T08:51:13.123Z,14.13
2022-09-24T08:52:27.122Z,14.25
2022-09-24T08:53:31.888Z,14.38
2022-09-24T08:54:33.964Z,14.49
2022-09-24T08:55:43.376Z,14.52
2022-09-24T08:56:45.824Z,14.58
2022-09-24T08:58:10.356Z,14.71
2022-09-24T08:59:23.624Z,14.75
2022-09-24T09:00:25.741Z,14.78
2022-09-24T09:01:54.854Z,14.85
2022-09-24T09:03:09.659Z,14.91
2022-09-24T09:04:41.895Z,14.96
2022-09-24T09:05:54.551Z,15.10
2022-09-24T09:06:58.950Z,15.19
2022-09-24T09:08:45.012Z,15.26
2022-09-24T09:10:01.350Z,15.32
2022-09-24T09:11:05.223Z,15.30
2022-09-24T09:12:17.894Z,15.30
2022-09-24T09:13:31.376Z,15.30
2022-09-24T09:14:42.010Z,15.33
2022-09-24T09:15:50.183Z,15.32
2022-09-24T09:17:00.283Z,15.29
2022-09-24T09:18:20.986Z,15.32
2022-09-24T09:19:25.824Z,15.36
2022-09-24T09:20:36.160Z,15.46
2022-09-24T09:21:41.832Z,15.54
2022-09-24T09:22:47.268Z,15.63
2022-09-24T09:23:49.820Z,15.76
2022-09-24T09:24:52.624Z,15.81
2022-09-24T09:25:58.170Z,15.94
2022-09-24T09:27:01.172Z,16.02
2022-09-24T09:28:20.792Z,16.19
2022-09-24T09:29:24.179Z,16.25
2022-09-24T09:30:25.896Z,16.33
2022-09-24T09:31:33.400Z,16.38
2022-09-24T09:33:20.072Z,16.49
2022-09-24T09:34:50.065Z,16.58
2022-09-24T09:35:55.763Z,16.65
2022-09-24T09:37:13.164Z,16.75
2022-09-24T09:38:33.484Z,16.84
2022-09-24T09:39:59.481Z,16.93
2022-09-24T09:41:11.032Z,16.99
2022-09-24T09:42:36.453Z,17.03
2022-09-24T09:43:38.429Z,17.04
2022-09-24T09:44:43.674Z,17.02
2022-09-24T09:46:07.848Z,16.97
2022-09-24T09:47:42.718Z,16.99
2022-09-24T09:48:46.022Z,17.00
2022-09-24T09:49:47.864Z,17.04
2022-09-24T09:50:53.479Z,17.06
2022-09-24T09:51:55.731Z,17.06
2022-09-24T09:52:57.345Z,17.03
2022-09-24T09:54:02.613Z,17.04
2022-09-24T09:55:05.417Z,17.06
2022-09-24T09:56:07.727Z,17.06
2022-09-24T09:57:17.701Z,17.02
2022-09-24T09:58:22.141Z,17.02
2022-09-24T09:59:30.806Z,16.99
2022-09-24T10:00:35.419Z,16.96
2022-09-24T10:01:40.683Z,17.00
2022-09-24T10:02:42.432Z,17.00
2022-09-24T10:03:47.081Z,17.06
2022-09-24T10:04:52.009Z,17.10
2022-09-24T10:05:58.531Z,17.16
2022-09-24T10:07:13.416Z,17.17
2022-09-24T10:08:22.263Z,17.26
2022-09-24T10:09:23.971Z,17.24
2022-09-24T10:10:28.908Z,17.28
2022-09-24T10:11:30.554Z,17.30
2022-09-24T10:12:32.241Z,17.33
2022-09-24T10:13:33.964Z,17.34
2022-09-24T10:14:35.637Z,17.35
2022-09-24T10:15:49.109Z,17.37
2022-09-24T10:16:54.256Z,17.38
2022-09-24T10:17:55.809Z,17.38
2022-09-24T10:18:57.409Z,17.43
2022-09-24T10:20:00.409Z,17.45
2022-09-24T10:21:04.350Z,17.51
2022-09-24T10:22:11.543Z,17.58
2022-09-24T10:23:20.099Z,17.64
2022-09-24T10:24:22.950Z,17.75
2022-09-24T10:25:29.751Z,17.84
2022-09-24T10:26:42.424Z,17.92
2022-09-24T10:27:46.707Z,17.98
2022-09-24T10:29:08.684Z,18.02
2022-09-24T10:30:34.814Z,18.05
2022-09-24T10:31:38.133Z,18.16
2022-09-24T10:32:39.758Z,18.15
2022-09-24T10:33:45.450Z,18.21
2022-09-24T10:35:01.147Z,18.28
2022-09-24T10:36:28.480Z,18.28
2022-09-24T10:37:30.166Z,18.33
2022-09-24T10:38:32.007Z,18.37
2022-09-24T10:39:33.597Z,18.40
2022-09-24T10:40:39.183Z,18.42
2022-09-24T10:41:53.886Z,18.43
2022-09-24T10:43:02.869Z,18.43
2022-09-24T10:44:13.570Z,18.43
2022-09-24T10:45:15.320Z,18.47
2022-09-24T10:46:22.899Z,18.46
2022-09-24T10:47:28.087Z,18.57
2022-09-24T10:48:41.918Z,18.59
2022-09-24T10:50:05.798Z,18.66
2022-09-24T10:51:35.707Z,18.68
2022-09-24T10:52:55.886Z,18.77
2022-09-24T10:53:57.514Z,18.78
2022-09-24T10:55:15.462Z,18.86
2022-09-24T10:56:45.192Z,18.87
2022-09-24T10:58:38.803Z,18.90
2022-09-24T10:59:51.863Z,18.90
2022-09-24T11:00:59.275Z,18.83
2022-09-24T11:02:14.424Z,18.80
2022-09-24T11:03:27.958Z,18.81
2022-09-24T11:04:45.369Z,18.88
2022-09-24T11:06:02.957Z,18.91
2022-09-24T11:07:22.983Z,19.01
2022-09-24T11:08:58.466Z,19.08
2022-09-24T11:10:37.084Z,19.11
2022-09-24T11:12:00.354Z,19.07
2022-09-24T11:13:23.953Z,19.08
2022-09-24T11:15:02.271Z,19.15
2022-09-24T11:16:23.680Z,19.18
2022-09-24T11:17:37.789Z,19.28
2022-09-24T11:18:58.161Z,19.29
2022-09-24T11:20:03.846Z,19.29
2022-09-24T11:21:20.308Z,19.31
2022-09-24T11:22:24.900Z,19.31
2022-09-24T11:23:47.876Z,19.29
2022-09-24T11:25:27.040Z,19.28
2022-09-24T11:26:47.161Z,19.32
2022-09-24T11:27:55.936Z,19.31
2022-09-24T11:29:19.638Z,19.25
2022-09-24T11:30:47.576Z,19.24
2022-09-24T11:32:14.292Z,19.21
2022-09-24T11:33:46.966Z,19.25
2022-09-24T11:34:54.441Z,19.27
2022-09-24T11:36:21.039Z,19.32
2022-09-24T11:37:41.039Z,19.38
2022-09-24T11:39:04.379Z,19.44
2022-09-24T11:40:06.044Z,19.44
2022-09-24T11:41:14.021Z,19.41
2022-09-24T11:42:31.380Z,19.39
2022-09-24T11:44:00.883Z,19.35
2022-09-24T11:45:20.992Z,19.24
2022-09-24T11:46:47.326Z,19.18
2022-09-24T11:48:00.698Z,19.17
2022-09-24T11:49:12.952Z,19.17
2022-09-24T11:50:33.192Z,19.21
2022-09-24T11:51:59.608Z,19.29
2022-09-24T11:53:28.824Z,19.34
2022-09-24T11:55:02.689Z,19.32
2022-09-24T11:56:13.089Z,19.32
2022-09-24T11:57:19.818Z,19.25
2022-09-24T11:58:27.136Z,19.22
2022-09-24T11:59:36.630Z,19.22
2022-09-24T12:00:42.201Z,19.18
2022-09-24T12:01:48.841Z,19.14
2022-09-24T12:02:51.972Z,19.14
2022-09-24T12:04:02.358Z,19.12
2022-09-24T12:05:15.464Z,19.10
2022-09-24T12:06:19.334Z,19.06
2022-09-24T12:07:28.578Z,18.98
2022-09-24T12:08:32.748Z,18.94
2022-09-24T12:09:47.163Z,18.91
2022-09-24T12:10:52.263Z,18.91
2022-09-24T12:12:12.768Z,18.97
2022-09-24T12:13:53.947Z,18.98
2022-09-24T12:15:06.173Z,18.97
2022-09-24T12:16:17.676Z,19.03
2022-09-24T12:17:24.142Z,19.03
2022-09-24T12:18:45.702Z,18.98
2022-09-24T12:20:18.740Z,19.00
2022-09-24T12:21:24.027Z,18.96
2022-09-24T12:22:25.596Z,18.96
2022-09-24T12:23:30.388Z,18.90
2022-09-24T12:24:41.835Z,18.88
2022-09-24T12:25:45.827Z,18.90
2022-09-24T12:26:47.458Z,18.88
2022-09-24T12:27:49.480Z,18.90
2022-09-24T12:29:09.638Z,18.91
2022-09-24T12:30:57.109Z,18.88
2022-09-24T12:32:25.204Z,18.90
2022-09-24T12:33:34.571Z,18.83
2022-09-24T12:34:42.243Z,18.80
2022-09-24T12:35:55.148Z,18.78
2022-09-24T12:37:02.620Z,18.76
2022-09-24T12:38:18.772Z,18.74
2022-09-24T12:39:20.885Z,18.74
2022-09-24T12:40:56.200Z,18.76
2022-09-24T12:42:00.107Z,18.76
2022-09-24T12:43:01.922Z,18.70
2022-09-24T12:44:11.456Z,18.76
2022-09-24T12:45:15.454Z,18.68
2022-09-24T12:46:22.246Z,18.70
2022-09-24T12:47:25.313Z,18.66
2022-09-24T12:48:27.535Z,18.68
2022-09-24T12:49:32.628Z,18.67
2022-09-24T12:50:34.899Z,18.66
2022-09-24T12:51:37.091Z,18.68
2022-09-24T12:52:42.092Z,18.66
2022-09-24T12:53:44.107Z,18.67
2022-09-24T12:54:45.768Z,18.64
2022-09-24T12:55:47.348Z,18.66
2022-09-24T12:56:49.078Z,18.67
2022-09-24T12:58:04.212Z,18.70
2022-09-24T12:59:05.887Z,18.67
2022-09-24T13:00:43.970Z,18.73
2022-09-24T13:01:45.707Z,18.74
2022-09-24T13:02:47.897Z,18.73
2022-09-24T13:04:14.066Z,18.78
2022-09-24T13:05:46.213Z,18.86
2022-09-24T13:06:49.917Z,18.88
2022-09-24T13:08:17.358Z,18.90
2022-09-24T13:09:35.286Z,18.97
2022-09-24T13:10:37.104Z,19.01
2022-09-24T13:11:38.669Z,19.04
2022-09-24T13:12:40.214Z,19.06
2022-09-24T13:13:44.691Z,19.10
2022-09-24T13:14:57.258Z,19.12
2022-09-24T13:16:01.700Z,19.10
2022-09-24T13:17:05.424Z,19.08
2022-09-24T13:18:10.849Z,19.14
2022-09-24T13:19:29.443Z,19.18
2022-09-24T13:20:31.192Z,19.25
2022-09-24T13:21:32.829Z,19.28
2022-09-24T13:22:35.827Z,19.29
2022-09-24T13:23:37.480Z,19.25
2022-09-24T13:24:52.824Z,19.31
2022-09-24T13:26:05.350Z,19.32
2022-09-24T13:27:30.956Z,19.34
2022-09-24T13:28:58.482Z,19.34
2022-09-24T13:30:21.393Z,19.28
2022-09-24T13:31:26.011Z,19.25
2022-09-24T13:32:27.704Z,19.25
2022-09-24T13:33:29.645Z,19.19
2022-09-24T13:34:32.044Z,19.17
2022-09-24T13:35:52.285Z,19.17
2022-09-24T13:37:00.205Z,19.12
2022-09-24T13:38:17.085Z,19.07
2022-09-24T13:39:35.267Z,19.03
2022-09-24T13:40:38.887Z,18.87
2022-09-24T13:41:40.732Z,18.80
2022-09-24T13:42:56.447Z,18.74
2022-09-24T13:44:01.725Z,18.70
2022-09-24T13:45:09.651Z,18.66
2022-09-24T13:46:15.189Z,18.63
2022-09-24T13:47:36.307Z,18.54
2022-09-24T13:48:42.332Z,18.45
2022-09-24T13:49:47.913Z,18.42
2022-09-24T13:50:50.642Z,18.39
2022-09-24T13:52:29.226Z,18.36
2022-09-24T13:53:57.018Z,18.32
2022-09-24T13:55:00.817Z,18.29
2022-09-24T13:56:07.369Z,18.26
2022-09-24T13:57:14.299Z,18.28
2022-09-24T13:58:31.416Z,18.23
2022-09-24T13:59:33.012Z,18.23
2022-09-24T14:00:35.671Z,18.25
2022-09-24T14:01:40.574Z,18.26
2022-09-24T14:02:52.922Z,18.28
2022-09-24T14:03:58.977Z,18.26
2022-09-24T14:05:00.650Z,18.30
2022-09-24T14:06:02.459Z,18.28
2022-09-24T14:07:04.040Z,18.28
2022-09-24T14:08:13.062Z,18.30
2022-09-24T14:09:26.850Z,18.29
2022-09-24T14:10:28.463Z,18.29
2022-09-24T14:11:30.018Z,18.30
2022-09-24T14:12:31.717Z,18.32
2022-09-24T14:13:33.340Z,18.28
2022-09-24T14:14:35.244Z,18.25
2022-09-24T14:15:36.860Z,18.19
2022-09-24T14:16:38.841Z,18.19
2022-09-24T14:17:40.419Z,18.15
2022-09-24T14:18:42.006Z,18.13
2022-09-24T14:19:43.692Z,18.09
2022-09-24T14:20:45.266Z,18.10
2022-09-24T14:21:55.096Z,18.08
2022-09-24T14:22:56.729Z,18.09
2022-09-24T14:24:06.462Z,18.08
2022-09-24T14:25:09.845Z,18.06
2022-09-24T14:26:17.462Z,18.09
2022-09-24T14:27:19.797Z,18.06
2022-09-24T14:28:21.426Z,18.08